createdAt,value
2019-03-05T00:04:56.057Z,55.54
2019-03-05T00:10:00.324Z,55.66
2019-03-05T00:15:04.848Z,55.73
2019-03-05T00:20:11.029Z,56.30
2019-03-05T00:25:17.489Z,56.09
2019-03-05T00:30:46.575Z,56.09
2019-03-05T00:36:40.995Z,56.10
2019-03-05T00:41:58.593Z,56.15
2019-03-05T00:47:18.906Z,56.60
2019-03-05T00:52:33.462Z,56.81
2019-03-05T00:57:49.986Z,56.65
2019-03-05T01:03:13.370Z,57.34
2019-03-05T01:08:19.592Z,56.99
2019-03-05T01:13:23.448Z,57.31
2019-03-05T01:18:27.670Z,57.77
2019-03-05T01:23:31.732Z,57.77
2019-03-05T01:28:35.838Z,57.64
2019-03-05T01:33:49.640Z,57.64
2019-03-05T01:39:02.587Z,57.91
2019-03-05T01:44:06.740Z,58.39
2019-03-05T01:49:10.857Z,58.23
2019-03-05T01:54:14.985Z,58.73
2019-03-05T01:59:19.039Z,58.73
2019-03-05T02:04:23.245Z,58.57
2019-03-05T02:09:27.565Z,58.35
2019-03-05T02:14:31.691Z,58.48
2019-03-05T02:19:37.927Z,58.48
2019-03-05T02:25:19.340Z,59.20
2019-03-05T02:30:37.491Z,59.20
2019-03-05T02:36:13.094Z,59.04
2019-03-05T02:41:40.974Z,59.56
2019-03-05T02:47:00.364Z,59.45
2019-03-05T02:52:45.041Z,59.45
2019-03-05T02:57:47.594Z,59.83
2019-03-05T03:02:58.776Z,59.66
2019-03-05T03:08:02.994Z,60.00
2019-03-05T03:13:07.186Z,59.73
2019-03-05T03:18:11.355Z,59.85
2019-03-05T03:23:15.460Z,59.85
2019-03-05T03:28:19.494Z,60.16
2019-03-05T03:33:23.533Z,60.17
2019-03-05T03:38:27.535Z,60.17
2019-03-05T03:43:31.577Z,60.33
2019-03-05T03:48:35.606Z,60.24
2019-03-05T03:53:39.672Z,59.94
2019-03-05T03:58:43.761Z,59.72
2019-03-05T04:03:47.963Z,59.97
2019-03-05T04:08:52.152Z,59.75
2019-03-05T04:13:59.528Z,59.79
2019-03-05T04:19:03.562Z,60.02
2019-03-05T04:24:07.588Z,59.87
2019-03-05T04:29:11.721Z,59.74
2019-03-05T04:34:15.863Z,60.27
2019-03-05T04:39:19.958Z,60.27
2019-03-05T04:44:32.324Z,60.02
2019-03-05T04:49:44.018Z,60.34
2019-03-05T04:54:48.060Z,59.93
2019-03-05T04:59:52.089Z,59.61
2019-03-05T05:04:56.218Z,59.56
2019-03-05T05:10:00.337Z,59.56
2019-03-05T05:15:05.618Z,59.83
2019-03-05T05:20:09.829Z,59.80
2019-03-05T05:25:13.870Z,59.87
2019-03-05T05:30:38.024Z,60.02
2019-03-05T05:35:42.248Z,60.02
2019-03-05T05:40:46.726Z,59.53
2019-03-05T05:45:51.980Z,59.51
2019-03-05T05:50:56.106Z,59.69
2019-03-05T05:56:00.201Z,59.75
2019-03-05T06:01:07.878Z,59.48
2019-03-05T06:06:11.917Z,59.52
2019-03-05T06:11:16.048Z,59.32
2019-03-05T06:16:20.130Z,59.68
2019-03-05T06:21:24.149Z,59.68
2019-03-05T06:26:28.171Z,59.40
2019-03-05T06:31:32.261Z,59.37
2019-03-05T06:36:55.918Z,59.37
2019-03-05T06:41:59.975Z,59.40
2019-03-05T06:47:04.112Z,59.62
2019-03-05T06:52:08.205Z,59.41
2019-03-05T06:57:12.268Z,59.41
2019-03-05T07:02:16.386Z,59.06
2019-03-05T07:07:20.435Z,59.12
2019-03-05T07:12:56.722Z,58.98
2019-03-05T07:18:06.026Z,58.98
2019-03-05T07:23:30.538Z,59.04
2019-03-05T07:28:34.686Z,59.03
2019-03-05T07:33:38.795Z,58.76
2019-03-05T07:38:42.895Z,58.76
2019-03-05T07:43:46.960Z,58.61
2019-03-05T07:48:51.000Z,58.58
2019-03-05T07:53:55.015Z,58.58
2019-03-05T07:58:59.036Z,59.01
2019-03-05T08:04:03.491Z,58.74
2019-03-05T08:09:35.572Z,57.47
2019-03-05T08:15:03.394Z,54.82
2019-03-05T08:20:09.626Z,54.80
2019-03-05T08:25:14.182Z,54.80
2019-03-05T08:30:18.613Z,54.98
2019-03-05T08:35:22.845Z,54.23
2019-03-05T08:40:27.298Z,54.60
2019-03-05T08:45:31.594Z,54.49
2019-03-05T08:50:35.957Z,54.74
2019-03-05T08:55:40.307Z,54.38
2019-03-05T09:00:44.549Z,54.73
2019-03-05T09:05:48.817Z,54.90
2019-03-05T09:10:54.209Z,54.41
2019-03-05T09:15:58.523Z,54.96
2019-03-05T09:21:02.833Z,54.96
2019-03-05T09:26:07.213Z,54.97
2019-03-05T09:31:11.506Z,55.30
2019-03-05T09:36:15.735Z,55.39
2019-03-05T09:41:20.057Z,55.39
2019-03-05T09:46:24.244Z,55.60
2019-03-05T09:51:28.489Z,56.25
2019-03-05T09:56:32.683Z,56.16
2019-03-05T10:01:37.046Z,55.96
2019-03-05T10:06:41.333Z,56.45
2019-03-05T10:11:45.580Z,56.45
2019-03-05T10:16:49.790Z,56.21
2019-03-05T10:21:54.073Z,56.15
2019-03-05T10:26:58.410Z,56.27
2019-03-05T10:32:02.681Z,56.34
2019-03-05T10:37:12.831Z,56.06
2019-03-05T10:42:12.937Z,56.10
2019-03-05T10:47:17.098Z,56.01
2019-03-05T10:52:21.237Z,56.11
2019-03-05T10:57:25.524Z,56.45
2019-03-05T11:02:29.767Z,56.12
2019-03-05T11:07:33.988Z,56.68
2019-03-05T11:12:39.296Z,56.68
2019-03-05T11:17:43.528Z,56.53
2019-03-05T11:22:48.237Z,56.34
2019-03-05T11:27:52.595Z,56.27
2019-03-05T11:32:56.916Z,56.59
2019-03-05T11:38:01.151Z,56.59
2019-03-05T11:43:13.360Z,56.82
2019-03-05T11:48:17.782Z,56.82
2019-03-05T11:53:21.950Z,57.06
2019-03-05T11:58:26.270Z,57.70
2019-03-05T12:03:30.637Z,57.31
2019-03-05T12:08:34.874Z,57.31
2019-03-05T12:13:39.362Z,57.28
2019-03-05T12:18:43.513Z,57.50
2019-03-05T12:23:48.381Z,57.67
2019-03-05T12:28:52.804Z,57.67
2019-03-05T12:33:57.004Z,57.14
2019-03-05T12:39:01.259Z,57.14
2019-03-05T12:44:05.888Z,49.77
2019-03-05T12:49:10.512Z,49.09
2019-03-05T12:54:15.067Z,48.74
2019-03-05T12:59:19.662Z,48.74
2019-03-05T13:04:23.769Z,50.19
2019-03-05T13:09:27.913Z,49.74
2019-03-05T13:14:32.327Z,48.38
2019-03-05T13:19:38.702Z,49.75
2019-03-05T13:24:42.545Z,50.67
2019-03-05T13:29:46.810Z,51.54
2019-03-05T13:34:51.321Z,53.81
2019-03-05T13:39:58.200Z,55.55
2019-03-05T13:45:05.322Z,56.57
2019-03-05T13:50:30.152Z,57.17
2019-03-05T13:56:30.683Z,56.80
2019-03-05T14:01:35.020Z,56.90
2019-03-05T14:06:49.640Z,56.90
2019-03-05T14:11:54.312Z,57.19
2019-03-05T14:17:31.332Z,58.76
2019-03-05T14:22:35.782Z,59.34
2019-03-05T14:27:45.299Z,59.74
2019-03-05T14:32:49.694Z,60.13
2019-03-05T14:37:53.849Z,60.51
2019-03-05T14:42:58.448Z,61.91
2019-03-05T14:48:04.349Z,61.94
2019-03-05T14:53:09.420Z,62.12
2019-03-05T14:58:23.041Z,62.12
2019-03-05T15:03:27.383Z,62.77
2019-03-05T15:08:31.856Z,63.26
2019-03-05T15:24:40.481Z,62.47
2019-03-05T15:29:45.504Z,61.22
2019-03-05T16:23:33.144Z,59.42
2019-03-05T16:28:39.150Z,58.59
2019-03-05T16:33:50.673Z,58.59
2019-03-05T16:39:03.248Z,58.91
2019-03-05T16:44:16.945Z,58.95
2019-03-05T16:49:40.049Z,58.95
2019-03-05T16:55:03.298Z,59.23
2019-03-05T17:00:24.308Z,59.27
2019-03-05T17:05:38.119Z,59.27
2019-03-05T17:10:51.900Z,58.50
2019-03-05T17:15:56.210Z,57.85
2019-03-05T17:21:00.780Z,56.84
2019-03-05T17:26:05.675Z,56.84
2019-03-05T17:31:10.128Z,56.64
2019-03-05T17:36:16.474Z,56.52
2019-03-05T17:41:22.320Z,56.52
2019-03-05T17:46:31.883Z,56.92
2019-03-05T17:51:38.563Z,57.18
2019-03-05T17:56:47.689Z,57.16
2019-03-05T18:01:52.396Z,56.47
2019-03-05T18:06:56.885Z,56.47
2019-03-05T18:12:01.164Z,56.91
2019-03-05T18:17:05.637Z,57.34
2019-03-05T18:22:10.025Z,57.01
2019-03-05T18:27:14.403Z,56.57
2019-03-05T18:32:18.793Z,56.00
2019-03-05T18:37:23.025Z,55.69
2019-03-05T19:04:44.347Z,56.80
2019-03-05T19:09:48.530Z,55.40
2019-03-05T19:57:32.185Z,55.57
2019-03-05T20:08:05.822Z,55.29
2019-03-05T20:13:10.467Z,54.24
2019-03-05T20:18:14.852Z,54.63
2019-03-05T20:23:24.718Z,54.81
2019-03-05T20:28:29.154Z,55.24
2019-03-05T20:33:33.677Z,55.24
2019-03-05T20:38:39.934Z,55.21
2019-03-05T20:43:44.476Z,55.42
2019-03-05T20:48:48.995Z,55.42
2019-03-05T20:53:53.392Z,55.09
2019-03-05T20:58:58.150Z,55.15
2019-03-05T21:04:13.070Z,55.42
2019-03-05T21:09:24.596Z,55.38
2019-03-05T21:14:28.817Z,55.82
2019-03-05T21:19:33.276Z,55.82
2019-03-05T21:24:37.506Z,56.77
2019-03-05T21:29:41.693Z,57.16
2019-03-05T21:34:47.037Z,56.86
2019-03-05T21:39:51.525Z,56.86
2019-03-05T21:44:55.639Z,57.16
2019-03-05T21:49:59.802Z,57.51
2019-03-05T21:55:04.237Z,57.17
2019-03-05T22:00:12.405Z,57.37
2019-03-05T22:05:16.819Z,57.12
2019-03-05T22:10:21.207Z,57.75
2019-03-05T22:15:25.653Z,57.00
2019-03-05T22:20:29.739Z,57.00
2019-03-05T22:25:34.217Z,57.32
2019-03-05T22:30:38.510Z,57.32
2019-03-05T22:35:43.090Z,57.50
2019-03-05T22:40:47.231Z,57.78
2019-03-05T22:45:51.842Z,57.63
2019-03-05T22:50:56.044Z,57.94
2019-03-05T22:56:00.555Z,57.94
2019-03-05T23:01:12.016Z,58.37
2019-03-05T23:06:16.659Z,58.23
2019-03-05T23:11:21.055Z,58.01
2019-03-05T23:16:25.311Z,58.61
2019-03-05T23:21:29.673Z,58.90
2019-03-05T23:26:34.036Z,58.80
2019-03-05T23:31:38.530Z,58.80
2019-03-05T23:36:42.631Z,59.30
2019-03-05T23:41:46.748Z,58.84
2019-03-05T23:46:50.797Z,59.55
2019-03-05T23:51:54.846Z,59.77
2019-03-05T23:56:59.067Z,59.77
